Time,TemperatureF,DewpointF,PressureIn,WindDirection,WindDirectionDegrees,WindSpeedMPH,WindSpeedGustMPH,Humidity,HourlyPrecipIn,Conditions,Clouds,dailyrainin,SoftwareType,DateUTC
2013-03-11 00:00:00,57.0,35.9,30.00,NNW,337,1.0,1.0,45,0.00,,,0.00,Wunderground v.1.13,2013-03-11 04:00:00,
2013-03-11 00:05:00,56.9,35.8,30.00,NNE,32,0.0,2.0,45,0.00,,,0.00,Wunderground v.1.13,2013-03-11 04:05:00,
2013-03-11 00:15:00,56.8,35.7,30.00,SE,125,1.0,2.0,45,0.00,,,0.00,Wunderground v.1.13,2013-03-11 04:15:00,
2013-03-11 00:20:00,56.8,35.1,30.00,SE,136,0.0,3.0,44,0.00,,,0.00,Wunderground v.1.13,2013-03-11 04:20:00,
2013-03-11 00:25:00,56.8,35.1,30.00,SE,132,1.0,3.0,44,0.00,,,0.00,Wunderground v.1.13,2013-03-11 04:25:00,
2013-03-11 00:30:00,56.9,35.2,30.00,SE,140,1.0,1.0,44,0.00,,,0.00,Wunderground v.1.13,2013-03-11 04:30:00,
2013-03-11 00:40:00,56.6,35.5,29.99,ESE,121,0.0,2.0,45,0.00,,,0.00,Wunderground v.1.13,2013-03-11 04:40:00,
2013-03-11 00:45:00,56.6,35.5,29.99,SE,132,1.0,1.0,45,0.00,,,0.00,Wunderground v.1.13,2013-03-11 04:45:00,
2013-03-11 00:50:00,56.6,35.5,29.99,SE,129,0.0,2.0,45,0.00,,,0.00,Wunderground v.1.13,2013-03-11 04:50:00,
2013-03-11 01:00:00,56.5,35.4,29.99,SSE,156,0.0,2.0,45,0.00,,,0.00,Wunderground v.1.13,2013-03-11 05:00:00,
2013-03-11 01:05:00,56.4,35.3,29.99,ENE,65,0.0,1.0,45,0.00,,,0.00,Wunderground v.1.13,2013-03-11 05:05:00,
2013-03-11 01:15:00,56.2,35.7,29.99,ENE,64,0.0,1.0,46,0.00,,,0.00,Wunderground v.1.13,2013-03-11 05:15:00,
2013-03-11 01:20:00,56.1,35.0,29.98,ENE,65,0.0,2.0,45,0.00,,,0.00,Wunderground v.1.13,2013-03-11 05:20:00,
2013-03-11 01:25:00,56.0,35.5,29.98,ENE,64,0.0,1.0,46,0.00,,,0.00,Wunderground v.1.13,2013-03-11 05:25:00,
2013-03-11 01:30:00,55.9,35.4,29.98,ESE,109,0.0,1.0,46,0.00,,,0.00,Wunderground v.1.13,2013-03-11 05:30:00,
2013-03-11 01:35:00,55.9,35.4,29.98,East,94,0.0,2.0,46,0.00,,,0.00,Wunderground v.1.13,2013-03-11 05:35:00,
2013-03-11 01:45:00,55.9,35.4,29.98,East,81,0.0,3.0,46,0.00,,,0.00,Wunderground v.1.13,2013-03-11 05:45:00,
2013-03-11 01:50:00,55.8,35.9,29.98,ESE,105,0.0,3.0,47,0.00,,,0.00,Wunderground v.1.13,2013-03-11 05:50:00,
2013-03-11 01:55:00,55.7,35.2,29.97,West,278,0.0,2.0,46,0.00,,,0.00,Wunderground v.1.13,2013-03-11 05:55:00,
2013-03-11 02:00:00,55.8,35.3,29.97,East,101,0.0,3.0,46,0.00,,,0.00,Wunderground v.1.13,2013-03-11 06:00:00,
2013-03-11 02:05:00,55.8,35.3,29.97,ENE,76,1.0,1.0,46,0.00,,,0.00,Wunderground v.1.13,2013-03-11 06:05:00,
2013-03-11 02:15:00,55.9,35.4,29.97,SW,219,1.0,4.0,46,0.00,,,0.00,Wunderground v.1.13,2013-03-11 06:15:00,
2013-03-11 02:20:00,55.9,35.4,29.97,SW,219,1.0,1.0,46,0.00,,,0.00,Wunderground v.1.13,2013-03-11 06:20:00,
2013-03-11 02:30:00,55.9,35.4,29.96,North,9,1.0,1.0,46,0.00,,,0.00,Wunderground v.1.13,2013-03-11 06:30:00,
2013-03-11 02:35:00,55.9,35.4,29.96,North,9,1.0,3.0,46,0.00,,,0.00,Wunderground v.1.13,2013-03-11 06:35:00,
2013-03-11 02:40:00,55.9,34.8,29.96,ESE,116,0.0,2.0,45,0.00,,,0.00,Wunderground v.1.13,2013-03-11 06:40:00,
2013-03-11 02:50:00,56.0,35.5,29.95,SE,134,0.0,2.0,46,0.00,,,0.00,Wunderground v.1.13,2013-03-11 06:50:00,
2013-03-11 02:55:00,55.9,35.4,29.95,SE,134,0.0,2.0,46,0.00,,,0.00,Wunderground v.1.13,2013-03-11 06:55:00,
2013-03-11 03:00:00,55.8,35.3,29.94,SE,134,0.0,1.0,46,0.00,,,0.00,Wunderground v.1.13,2013-03-11 07:00:00,
2013-03-11 03:05:00,55.7,35.8,29.95,SE,134,0.0,0.0,47,0.00,,,0.00,Wunderground v.1.13,2013-03-11 07:05:00,
2013-03-11 03:15:00,55.7,35.2,29.95,NE,51,0.0,1.0,46,0.00,,,0.00,Wunderground v.1.13,2013-03-11 07:15:00,
2013-03-11 03:20:00,55.8,35.3,29.94,ENE,59,0.0,2.0,46,0.00,,,0.00,Wunderground v.1.13,2013-03-11 07:20:00,
2013-03-11 03:30:00,55.7,35.8,29.94,ENE,63,0.0,1.0,47,0.00,,,0.00,Wunderground v.1.13,2013-03-11 07:30:00,
2013-03-11 03:40:00,55.3,35.9,29.93,ENE,63,0.0,2.0,48,0.00,,,0.00,Wunderground v.1.13,2013-03-11 07:40:00,
2013-03-11 03:50:00,54.9,36.6,29.92,ENE,63,0.0,0.0,50,0.00,,,0.00,Wunderground v.1.13,2013-03-11 07:50:00,
2013-03-11 03:55:00,54.6,36.8,29.92,ENE,63,0.0,0.0,51,0.00,,,0.00,Wunderground v.1.13,2013-03-11 07:55:00,
2013-03-11 04:00:00,54.2,35.4,29.91,ENE,63,0.0,0.0,49,0.00,,,0.00,Wunderground v.1.13,2013-03-11 08:00:00,
2013-03-11 04:05:00,54.0,38.2,29.92,ENE,63,0.0,2.0,55,0.00,,,0.00,Wunderground v.1.13,2013-03-11 08:05:00,
2013-03-11 04:15:00,52.3,38.0,29.92,SE,133,0.0,2.0,58,0.00,,,0.00,Wunderground v.1.13,2013-03-11 08:15:00,
2013-03-11 04:20:00,51.9,38.0,29.92,SE,133,0.0,0.0,59,0.00,,,0.00,Wunderground v.1.13,2013-03-11 08:20:00,
2013-03-11 04:25:00,51.5,37.6,29.91,SE,133,0.0,0.0,59,0.00,,,0.00,Wunderground v.1.13,2013-03-11 08:25:00,
2013-03-11 04:30:00,51.2,36.5,29.91,SE,133,0.0,0.0,57,0.00,,,0.00,Wunderground v.1.13,2013-03-11 08:30:00,
2013-03-11 04:35:00,51.0,36.3,29.90,SE,133,0.0,0.0,57,0.00,,,0.00,Wunderground v.1.13,2013-03-11 08:35:00,
2013-03-11 04:40:00,50.9,37.5,29.90,SE,133,0.0,0.0,60,0.00,,,0.00,Wunderground v.1.13,2013-03-11 08:40:00,
2013-03-11 04:45:00,50.7,37.3,29.90,SE,133,0.0,0.0,60,0.00,,,0.00,Wunderground v.1.13,2013-03-11 08:45:00,
2013-03-11 04:50:00,50.5,37.1,29.90,SE,133,0.0,0.0,60,0.00,,,0.00,Wunderground v.1.13,2013-03-11 08:50:00,
2013-03-11 05:00:00,50.1,36.7,29.90,SE,133,0.0,0.0,60,0.00,,,0.00,Wunderground v.1.13,2013-03-11 09:00:00,
2013-03-11 05:05:00,49.9,37.0,29.90,SE,133,0.0,0.0,61,0.00,,,0.00,Wunderground v.1.13,2013-03-11 09:05:00,
2013-03-11 05:15:00,49.4,36.1,29.91,SE,133,0.0,0.0,60,0.00,,,0.00,Wunderground v.1.13,2013-03-11 09:15:00,
2013-03-11 05:20:00,49.3,36.8,29.91,SE,133,0.0,0.0,62,0.00,,,0.00,Wunderground v.1.13,2013-03-11 09:20:00,
2013-03-11 05:25:00,49.2,37.1,29.90,SE,133,0.0,0.0,63,0.00,,,0.00,Wunderground v.1.13,2013-03-11 09:25:00,
2013-03-11 05:30:00,49.1,37.4,29.90,SE,133,0.0,0.0,64,0.00,,,0.00,Wunderground v.1.13,2013-03-11 09:30:00,
2013-03-11 05:35:00,48.9,37.3,29.91,SE,133,0.0,0.0,64,0.00,,,0.00,Wunderground v.1.13,2013-03-11 09:35:00,
2013-03-11 05:40:00,48.7,37.1,29.91,SE,133,0.0,0.0,64,0.00,,,0.00,Wunderground v.1.13,2013-03-11 09:40:00,
2013-03-11 05:45:00,48.6,37.0,29.90,SE,133,0.0,0.0,64,0.00,,,0.00,Wunderground v.1.13,2013-03-11 09:45:00,
2013-03-11 05:55:00,48.2,37.4,29.90,SE,133,0.0,0.0,66,0.00,,,0.00,Wunderground v.1.13,2013-03-11 09:55:00,
2013-03-11 06:00:00,48.0,37.2,29.90,SE,133,0.0,1.0,66,0.00,,,0.00,Wunderground v.1.13,2013-03-11 10:00:00,
2013-03-11 06:05:00,47.9,37.5,29.91,SE,133,0.0,1.0,67,0.00,,,0.00,Wunderground v.1.13,2013-03-11 10:05:00,
2013-03-11 06:15:00,47.7,37.3,29.91,SE,133,0.0,0.0,67,0.00,,,0.00,Wunderground v.1.13,2013-03-11 10:15:00,
2013-03-11 06:20:00,47.5,37.1,29.91,SE,133,0.0,0.0,67,0.00,,,0.00,Wunderground v.1.13,2013-03-11 10:20:00,
2013-03-11 06:25:00,47.4,37.0,29.91,SE,133,0.0,0.0,67,0.00,,,0.00,Wunderground v.1.13,2013-03-11 10:25:00,
2013-03-11 06:30:00,47.4,37.0,29.91,SE,133,0.0,0.0,67,0.00,,,0.00,Wunderground v.1.13,2013-03-11 10:30:00,
2013-03-11 06:35:00,47.2,36.4,29.91,SE,133,0.0,0.0,66,0.00,,,0.00,Wunderground v.1.13,2013-03-11 10:35:00,
2013-03-11 06:45:00,47.2,36.4,29.91,SE,133,0.0,0.0,66,0.00,,,0.00,Wunderground v.1.13,2013-03-11 10:45:00,
2013-03-11 06:50:00,47.3,37.3,29.91,SE,133,0.0,0.0,68,0.00,,,0.00,Wunderground v.1.13,2013-03-11 10:50:00,
2013-03-11 06:55:00,47.2,37.2,29.91,SE,133,0.0,0.0,68,0.00,,,0.00,Wunderground v.1.13,2013-03-11 10:55:00,
2013-03-11 07:05:00,47.0,37.0,29.91,SE,133,0.0,0.0,68,0.00,,,0.00,Wunderground v.1.13,2013-03-11 11:05:00,
2013-03-11 07:15:00,46.9,36.9,29.92,SE,133,0.0,0.0,68,0.00,,,0.00,Wunderground v.1.13,2013-03-11 11:15:00,
2013-03-11 07:25:00,46.7,36.7,29.91,SE,133,0.0,0.0,68,0.00,,,0.00,Wunderground v.1.13,2013-03-11 11:25:00,
2013-03-11 07:30:00,46.7,36.7,29.91,SE,133,0.0,0.0,68,0.00,,,0.00,Wunderground v.1.13,2013-03-11 11:30:00,
2013-03-11 07:40:00,46.5,36.9,29.92,SE,133,0.0,0.0,69,0.00,,,0.00,Wunderground v.1.13,2013-03-11 11:40:00,
2013-03-11 07:45:00,46.5,36.9,29.92,SE,133,0.0,0.0,69,0.00,,,0.00,Wunderground v.1.13,2013-03-11 11:45:00,
2013-03-11 07:55:00,46.4,37.1,29.92,SE,133,0.0,0.0,70,0.00,,,0.00,Wunderground v.1.13,2013-03-11 11:55:00,
2013-03-11 08:00:00,46.3,37.0,29.92,SE,133,0.0,0.0,70,0.00,,,0.00,Wunderground v.1.13,2013-03-11 12:00:00,
2013-03-11 08:05:00,46.1,36.9,29.92,SE,133,0.0,0.0,70,0.00,,,0.00,Wunderground v.1.13,2013-03-11 12:05:00,
2013-03-11 08:15:00,46.1,36.9,29.92,SE,133,0.0,0.0,70,0.00,,,0.00,Wunderground v.1.13,2013-03-11 12:15:00,
2013-03-11 08:20:00,46.1,36.9,29.92,SE,133,0.0,0.0,70,0.00,,,0.00,Wunderground v.1.13,2013-03-11 12:20:00,
2013-03-11 08:25:00,46.1,36.9,29.92,SE,133,0.0,0.0,70,0.00,,,0.00,Wunderground v.1.13,2013-03-11 12:25:00,
2013-03-11 08:30:00,46.1,36.9,29.92,SE,133,0.0,0.0,70,0.00,,,0.00,Wunderground v.1.13,2013-03-11 12:30:00,
2013-03-11 08:40:00,46.2,37.3,29.92,SE,133,0.0,0.0,71,0.00,,,0.00,Wunderground v.1.13,2013-03-11 12:40:00,
2013-03-11 08:45:00,46.3,37.4,29.93,SE,133,0.0,0.0,71,0.00,,,0.00,Wunderground v.1.13,2013-03-11 12:45:00,
2013-03-11 08:50:00,46.3,37.4,29.93,SE,133,0.0,0.0,71,0.00,,,0.00,Wunderground v.1.13,2013-03-11 12:50:00,
2013-03-11 08:55:00,46.4,37.9,29.93,SE,133,0.0,0.0,72,0.00,,,0.00,Wunderground v.1.13,2013-03-11 12:55:00,
2013-03-11 09:05:00,46.5,38.3,29.93,SE,133,0.0,0.0,73,0.00,,,0.00,Wunderground v.1.13,2013-03-11 13:05:00,
2013-03-11 09:15:00,46.7,38.1,29.93,SE,133,0.0,0.0,72,0.00,,,0.00,Wunderground v.1.13,2013-03-11 13:15:00,
2013-03-11 09:20:00,46.8,38.2,29.93,SE,133,0.0,0.0,72,0.00,,,0.00,Wunderground v.1.13,2013-03-11 13:20:00,
2013-03-11 09:30:00,47.2,39.0,29.93,SE,133,0.0,0.0,73,0.00,,,0.00,Wunderground v.1.13,2013-03-11 13:30:00,
2013-03-11 09:35:00,47.3,39.1,29.93,SE,133,0.0,0.0,73,0.00,,,0.00,Wunderground v.1.13,2013-03-11 13:35:00,
2013-03-11 09:40:00,47.5,39.3,29.93,SE,133,0.0,0.0,73,0.00,,,0.00,Wunderground v.1.13,2013-03-11 13:40:00,
2013-03-11 09:45:00,47.6,39.0,29.93,SE,133,0.0,0.0,72,0.00,,,0.00,Wunderground v.1.13,2013-03-11 13:45:00,
2013-03-11 09:55:00,48.0,39.0,29.93,SE,133,0.0,0.0,71,0.00,,,0.00,Wunderground v.1.13,2013-03-11 13:55:00,
2013-03-11 10:05:00,48.6,38.9,29.93,SE,133,0.0,0.0,69,0.00,,,0.00,Wunderground v.1.13,2013-03-11 14:05:00,
2013-03-11 10:15:00,49.1,39.4,29.93,SE,133,0.0,0.0,69,0.00,,,0.00,Wunderground v.1.13,2013-03-11 14:15:00,
2013-03-11 10:20:00,49.6,39.5,29.93,SE,133,0.0,0.0,68,0.00,,,0.00,Wunderground v.1.13,2013-03-11 14:20:00,
2013-03-11 10:25:00,49.9,39.4,29.92,SE,133,0.0,1.0,67,0.00,,,0.00,Wunderground v.1.13,2013-03-11 14:25:00,
2013-03-11 10:30:00,50.3,39.8,29.92,SE,133,0.0,0.0,67,0.00,,,0.00,Wunderground v.1.13,2013-03-11 14:30:00,
2013-03-11 10:40:00,51.2,39.8,29.92,SE,133,0.0,0.0,65,0.00,,,0.00,Wunderground v.1.13,2013-03-11 14:40:00,
2013-03-11 10:45:00,51.7,40.7,29.92,SE,133,0.0,0.0,66,0.00,,,0.00,Wunderground v.1.13,2013-03-11 14:45:00,
2013-03-11 10:50:00,52.2,39.1,29.92,SE,133,0.0,0.0,61,0.00,,,0.00,Wunderground v.1.13,2013-03-11 14:50:00,
2013-03-11 11:00:00,54.4,39.5,29.92,SE,133,0.0,2.0,57,0.00,,,0.00,Wunderground v.1.13,2013-03-11 15:00:00,
2013-03-11 11:05:00,55.3,38.4,29.91,SE,133,0.0,3.0,53,0.00,,,0.00,Wunderground v.1.13,2013-03-11 15:05:00,
2013-03-11 11:15:00,56.6,37.6,29.91,SE,133,0.0,1.0,49,0.00,,,0.00,Wunderground v.1.13,2013-03-11 15:15:00,
2013-03-11 11:20:00,57.1,38.1,29.91,SE,133,0.0,2.0,49,0.00,,,0.00,Wunderground v.1.13,2013-03-11 15:20:00,
2013-03-11 11:30:00,58.2,38.1,29.90,SE,133,0.0,1.0,47,0.00,,,0.00,Wunderground v.1.13,2013-03-11 15:30:00,
2013-03-11 11:40:00,59.0,38.8,29.89,SE,133,0.0,1.0,47,0.00,,,0.00,Wunderground v.1.13,2013-03-11 15:40:00,
2013-03-11 11:45:00,59.5,38.1,29.89,ESE,111,0.0,1.0,45,0.00,,,0.00,Wunderground v.1.13,2013-03-11 15:45:00,
2013-03-11 11:50:00,59.9,37.9,29.89,SSE,165,1.0,3.0,44,0.00,,,0.00,Wunderground v.1.13,2013-03-11 15:50:00,
2013-03-11 12:00:00,60.9,38.2,29.88,ESE,111,0.0,2.0,43,0.00,,,0.00,Wunderground v.1.13,2013-03-11 16:00:00,
2013-03-11 12:05:00,61.4,37.5,29.87,ESE,109,0.0,2.0,41,0.00,,,0.00,Wunderground v.1.13,2013-03-11 16:05:00,
2013-03-11 12:15:00,62.0,38.0,29.87,South,190,1.0,1.0,41,0.00,,,0.00,Wunderground v.1.13,2013-03-11 16:15:00,
2013-03-11 12:20:00,62.3,37.7,29.86,ENE,78,1.0,1.0,40,0.00,,,0.00,Wunderground v.1.13,2013-03-11 16:20:00,
2013-03-11 12:25:00,63.0,37.0,29.86,ESE,113,1.0,5.0,38,0.00,,,0.00,Wunderground v.1.13,2013-03-11 16:25:00,
2013-03-11 12:35:00,63.8,37.7,29.86,ESE,120,3.0,8.0,38,0.00,,,0.00,Wunderground v.1.13,2013-03-11 16:35:00,
2013-03-11 12:40:00,64.0,36.5,29.86,ESE,108,3.0,8.0,36,0.00,,,0.00,Wunderground v.1.13,2013-03-11 16:40:00,
2013-03-11 12:45:00,64.1,39.3,29.86,SE,143,3.0,3.0,40,0.00,,,0.00,Wunderground v.1.13,2013-03-11 16:45:00,
2013-03-11 12:55:00,63.8,36.3,29.85,SSW,198,3.0,3.0,36,0.00,,,0.00,Wunderground v.1.13,2013-03-11 16:55:00,
2013-03-11 13:00:00,63.8,36.3,29.85,East,101,2.0,8.0,36,0.00,,,0.00,Wunderground v.1.13,2013-03-11 17:00:00,
2013-03-11 13:05:00,63.6,36.1,29.84,SSW,207,2.0,2.0,36,0.00,,,0.00,Wunderground v.1.13,2013-03-11 17:05:00,
2013-03-11 13:15:00,63.5,36.7,29.83,ESE,105,2.0,2.0,37,0.00,,,0.00,Wunderground v.1.13,2013-03-11 17:15:00,
2013-03-11 13:20:00,63.5,36.7,29.85,ESE,105,2.0,6.0,37,0.00,,,0.00,Wunderground v.1.13,2013-03-11 17:20:00,
2013-03-11 13:30:00,63.4,36.7,29.85,South,184,2.0,2.0,37,0.00,,,0.00,Wunderground v.1.13,2013-03-11 17:30:00,
2013-03-11 13:35:00,63.4,37.3,29.84,NE,40,2.0,5.0,38,0.00,,,0.00,Wunderground v.1.13,2013-03-11 17:35:00,
2013-03-11 13:45:00,63.6,36.8,29.82,SSW,193,2.0,2.0,37,0.00,,,0.00,Wunderground v.1.13,2013-03-11 17:45:00,
2013-03-11 13:50:00,63.7,36.2,29.84,South,180,3.0,3.0,36,0.00,,,0.00,Wunderground v.1.13,2013-03-11 17:50:00,
2013-03-11 13:55:00,63.8,37.7,29.83,SSE,155,2.0,7.0,38,0.00,,,0.00,Wunderground v.1.13,2013-03-11 17:55:00,
2013-03-11 14:05:00,64.2,38.7,29.82,ESE,108,2.0,2.0,39,0.00,,,0.00,Wunderground v.1.13,2013-03-11 18:05:00,
2013-03-11 14:15:00,64.2,37.4,29.81,WSW,253,2.0,9.0,37,0.00,,,0.00,Wunderground v.1.13,2013-03-11 18:15:00,
2013-03-11 14:25:00,64.1,37.3,29.79,SSE,163,3.0,3.0,37,0.00,,,0.00,Wunderground v.1.13,2013-03-11 18:25:00,
2013-03-11 14:30:00,64.1,37.3,29.78,SE,137,2.0,11.0,37,0.00,,,0.00,Wunderground v.1.13,2013-03-11 18:30:00,
2013-03-11 14:35:00,63.9,36.4,29.77,South,178,2.0,11.0,36,0.00,,,0.00,Wunderground v.1.13,2013-03-11 18:35:00,
2013-03-11 14:45:00,63.4,36.7,29.79,West,272,3.0,3.0,37,0.00,,,0.00,Wunderground v.1.13,2013-03-11 18:45:00,
2013-03-11 14:50:00,63.3,36.6,29.80,SE,139,3.0,7.0,37,0.00,,,0.00,Wunderground v.1.13,2013-03-11 18:50:00,
2013-03-11 14:55:00,63.3,37.2,29.80,ENE,67,3.0,3.0,38,0.00,,,0.00,Wunderground v.1.13,2013-03-11 18:55:00,
2013-03-11 15:00:00,63.1,36.4,29.81,ESE,117,3.0,6.0,37,0.00,,,0.00,Wunderground v.1.13,2013-03-11 19:00:00,
2013-03-11 15:05:00,63.0,36.3,29.80,South,177,3.0,3.0,37,0.00,,,0.00,Wunderground v.1.13,2013-03-11 19:05:00,
2013-03-11 15:15:00,62.8,36.1,29.80,SE,139,2.0,9.0,37,0.00,,,0.00,Wunderground v.1.13,2013-03-11 19:15:00,
2013-03-11 15:20:00,62.7,36.0,29.80,ENE,78,2.0,7.0,37,0.00,,,0.00,Wunderground v.1.13,2013-03-11 19:20:00,
2013-03-11 15:30:00,62.5,35.9,29.79,SE,128,2.0,2.0,37,0.00,,,0.00,Wunderground v.1.13,2013-03-11 19:30:00,
2013-03-11 15:35:00,62.5,35.9,29.79,SSE,160,2.0,2.0,37,0.00,,,0.00,Wunderground v.1.13,2013-03-11 19:35:00,
2013-03-11 15:40:00,62.6,35.9,29.78,South,188,2.0,2.0,37,0.00,,,0.00,Wunderground v.1.13,2013-03-11 19:40:00,
2013-03-11 15:45:00,62.5,35.9,29.79,SE,132,2.0,11.0,37,0.00,,,0.00,Wunderground v.1.13,2013-03-11 19:45:00,
2013-03-11 15:55:00,62.3,35.7,29.78,ESE,104,3.0,8.0,37,0.00,,,0.00,Wunderground v.1.13,2013-03-11 19:55:00,
2013-03-11 16:00:00,62.2,35.6,29.77,SE,136,2.0,7.0,37,0.00,,,0.00,Wunderground v.1.13,2013-03-11 20:00:00,
2013-03-11 16:05:00,62.0,35.4,29.75,East,92,2.0,8.0,37,0.00,,,0.00,Wunderground v.1.13,2013-03-11 20:05:00,
2013-03-11 16:15:00,61.8,35.2,29.76,ESE,123,3.0,3.0,37,0.00,,,0.00,Wunderground v.1.13,2013-03-11 20:15:00,
2013-03-11 16:20:00,61.8,35.9,29.76,South,171,3.0,8.0,38,0.00,,,0.00,Wunderground v.1.13,2013-03-11 20:20:00,
2013-03-11 16:25:00,61.7,35.8,29.76,WSW,244,3.0,7.0,38,0.00,,,0.00,Wunderground v.1.13,2013-03-11 20:25:00,
2013-03-11 16:30:00,61.7,35.8,29.75,South,184,2.0,2.0,38,0.00,,,0.00,Wunderground v.1.13,2013-03-11 20:30:00,
2013-03-11 16:35:00,61.6,36.4,29.75,East,83,2.0,6.0,39,0.00,,,0.00,Wunderground v.1.13,2013-03-11 20:35:00,
2013-03-11 16:45:00,61.5,36.3,29.72,SE,124,2.0,6.0,39,0.00,,,0.00,Wunderground v.1.13,2013-03-11 20:45:00,
2013-03-11 16:50:00,61.3,36.8,29.73,SSW,194,2.0,5.0,40,0.00,,,0.00,Wunderground v.1.13,2013-03-11 20:50:00,
2013-03-11 16:55:00,61.2,37.3,29.72,ESE,109,2.0,5.0,41,0.00,,,0.00,Wunderground v.1.13,2013-03-11 20:55:00,
2013-03-11 17:00:00,61.1,37.8,29.71,SSW,202,2.0,2.0,42,0.00,,,0.00,Wunderground v.1.13,2013-03-11 21:00:00,
2013-03-11 17:05:00,60.9,38.2,29.75,WSW,252,2.0,6.0,43,0.00,,,0.00,Wunderground v.1.13,2013-03-11 21:05:00,
2013-03-11 17:15:00,60.8,38.1,29.72,NE,34,2.0,10.0,43,0.00,,,0.00,Wunderground v.1.13,2013-03-11 21:15:00,
2013-03-11 17:25:00,60.8,38.7,29.73,WSW,238,2.0,6.0,44,0.00,,,0.00,Wunderground v.1.13,2013-03-11 21:25:00,
2013-03-11 17:30:00,60.8,39.3,29.73,ESE,121,2.0,2.0,45,0.00,,,0.00,Wunderground v.1.13,2013-03-11 21:30:00,
2013-03-11 17:40:00,60.8,39.9,29.72,NE,47,2.0,6.0,46,0.00,,,0.00,Wunderground v.1.13,2013-03-11 21:40:00,
2013-03-11 17:45:00,60.7,39.8,29.71,SSE,155,2.0,2.0,46,0.00,,,0.00,Wunderground v.1.13,2013-03-11 21:45:00,
2013-03-11 17:50:00,60.7,39.8,29.70,SSE,149,2.0,3.0,46,0.00,,,0.00,Wunderground v.1.13,2013-03-11 21:50:00,
2013-03-11 17:55:00,60.7,40.3,29.71,ENE,60,2.0,2.0,47,0.00,,,0.00,Wunderground v.1.13,2013-03-11 21:55:00,
2013-03-11 18:00:00,60.7,40.9,29.72,ESE,117,3.0,8.0,48,0.00,,,0.00,Wunderground v.1.13,2013-03-11 22:00:00,
2013-03-11 18:05:00,60.7,41.4,29.72,West,263,3.0,11.0,49,0.00,,,0.00,Wunderground v.1.13,2013-03-11 22:05:00,
2013-03-11 18:15:00,60.5,41.8,29.72,SW,236,3.0,10.0,50,0.00,,,0.00,Wunderground v.1.13,2013-03-11 22:15:00,
2013-03-11 18:20:00,60.3,42.1,29.71,ESE,103,3.0,9.0,51,0.00,,,0.00,Wunderground v.1.13,2013-03-11 22:20:00,
2013-03-11 18:30:00,60.1,41.9,29.70,SSE,151,3.0,3.0,51,0.00,,,0.00,Wunderground v.1.13,2013-03-11 22:30:00,
2013-03-11 18:35:00,60.0,42.3,29.72,SE,126,3.0,3.0,52,0.00,,,0.00,Wunderground v.1.13,2013-03-11 22:35:00,
2013-03-11 18:40:00,59.9,42.2,29.70,ESE,105,3.0,10.0,52,0.00,,,0.00,Wunderground v.1.13,2013-03-11 22:40:00,
2013-03-11 18:45:00,60.0,42.3,29.71,SSE,156,3.0,3.0,52,0.00,,,0.00,Wunderground v.1.13,2013-03-11 22:45:00,
2013-03-11 18:55:00,59.9,42.7,29.71,SSE,149,2.0,5.0,53,0.00,,,0.00,Wunderground v.1.13,2013-03-11 22:55:00,
2013-03-11 19:00:00,59.8,43.1,29.72,South,182,2.0,8.0,54,0.00,,,0.00,Wunderground v.1.13,2013-03-11 23:00:00,
2013-03-11 19:05:00,59.6,43.9,29.73,NE,49,3.0,8.0,56,0.00,,,0.00,Wunderground v.1.13,2013-03-11 23:05:00,
2013-03-11 19:15:00,58.8,44.5,29.73,SE,136,3.0,3.0,59,0.00,,,0.00,Wunderground v.1.13,2013-03-11 23:15:00,
2013-03-11 19:20:00,58.0,45.5,29.73,SE,146,4.0,11.0,63,0.00,,,0.00,Wunderground v.1.13,2013-03-11 23:20:00,
2013-03-11 19:30:00,56.8,45.2,29.73,East,80,2.0,2.0,65,0.00,,,0.00,Wunderground v.1.13,2013-03-11 23:30:00,
2013-03-11 19:35:00,56.3,45.5,29.72,SSE,159,2.0,2.0,67,0.00,,,0.00,Wunderground v.1.13,2013-03-11 23:35:00,
2013-03-11 19:40:00,56.0,45.6,29.73,ENE,63,2.0,2.0,68,0.00,,,0.01,Wunderground v.1.13,2013-03-11 23:40:00,
2013-03-11 19:45:00,55.8,45.4,29.73,SSE,163,2.0,2.0,68,0.00,,,0.01,Wunderground v.1.13,2013-03-11 23:45:00,
2013-03-11 19:55:00,55.5,45.5,29.72,NE,44,2.0,2.0,69,0.00,,,0.01,Wunderground v.1.13,2013-03-11 23:55:00,
2013-03-11 20:00:00,55.3,45.3,29.72,SW,217,2.0,2.0,69,0.00,,,0.01,Wunderground v.1.13,2013-03-12 00:00:00,
2013-03-11 20:05:00,55.3,45.7,29.72,ESE,123,2.0,2.0,70,0.00,,,0.01,Wunderground v.1.13,2013-03-12 00:05:00,
2013-03-11 20:15:00,55.1,45.5,29.71,South,173,1.0,3.0,70,0.00,,,0.01,Wunderground v.1.13,2013-03-12 00:15:00,
2013-03-11 20:25:00,55.1,45.5,29.71,SSE,163,2.0,2.0,70,0.00,,,0.01,Wunderground v.1.13,2013-03-12 00:25:00,
2013-03-11 20:30:00,55.1,45.5,29.72,East,94,1.0,1.0,70,0.00,,,0.01,Wunderground v.1.13,2013-03-12 00:30:00,
2013-03-11 20:35:00,55.1,45.5,29.72,ESE,105,1.0,1.0,70,0.00,,,0.01,Wunderground v.1.13,2013-03-12 00:35:00,
2013-03-11 20:45:00,55.4,45.0,29.72,East,91,1.0,1.0,68,0.00,,,0.01,Wunderground v.1.13,2013-03-12 00:45:00,
2013-03-11 20:50:00,55.5,45.1,29.71,ESE,109,1.0,1.0,68,0.00,,,0.01,Wunderground v.1.13,2013-03-12 00:50:00,
2013-03-11 20:55:00,55.5,44.7,29.70,NE,49,0.0,3.0,67,0.00,,,0.01,Wunderground v.1.13,2013-03-12 00:55:00,
2013-03-11 21:00:00,55.7,44.9,29.69,East,98,1.0,7.0,67,0.00,,,0.01,Wunderground v.1.13,2013-03-12 01:00:00,
2013-03-11 21:05:00,55.8,44.6,29.70,SSE,157,1.0,1.0,66,0.00,,,0.01,Wunderground v.1.13,2013-03-12 01:05:00,
2013-03-11 21:15:00,56.4,44.8,29.71,SE,132,2.0,2.0,65,0.00,,,0.01,Wunderground v.1.13,2013-03-12 01:15:00,
2013-03-11 21:20:00,56.6,45.4,29.71,East,96,1.0,1.0,66,0.00,,,0.01,Wunderground v.1.13,2013-03-12 01:20:00,
2013-03-11 21:30:00,56.8,45.2,29.71,SE,139,1.0,1.0,65,0.00,,,0.01,Wunderground v.1.13,2013-03-12 01:30:00,
2013-03-11 21:35:00,56.8,45.2,29.71,SSW,202,1.0,9.0,65,0.00,,,0.01,Wunderground v.1.13,2013-03-12 01:35:00,
2013-03-11 21:40:00,56.9,45.3,29.71,SSE,157,1.0,4.0,65,0.00,,,0.01,Wunderground v.1.13,2013-03-12 01:40:00,
2013-03-11 21:45:00,57.1,45.4,29.71,ESE,107,2.0,7.0,65,0.00,,,0.01,Wunderground v.1.13,2013-03-12 01:45:00,
2013-03-11 21:50:00,57.4,45.3,29.70,South,190,2.0,2.0,64,0.00,,,0.01,Wunderground v.1.13,2013-03-12 01:50:00,
2013-03-11 22:00:00,57.6,45.9,29.71,SSE,163,2.0,2.0,65,0.00,,,0.01,Wunderground v.1.13,2013-03-12 02:00:00,
2013-03-11 22:05:00,57.5,45.8,29.72,SSW,208,2.0,4.0,65,0.00,,,0.01,Wunderground v.1.13,2013-03-12 02:05:00,
2013-03-11 22:15:00,57.3,46.4,29.72,SSE,166,1.0,3.0,67,0.00,,,0.01,Wunderground v.1.13,2013-03-12 02:15:00,
2013-03-11 22:20:00,57.1,46.6,29.72,SW,236,1.0,1.0,68,0.00,,,0.01,Wunderground v.1.13,2013-03-12 02:20:00,
2013-03-11 22:25:00,56.9,46.8,29.73,ESE,109,1.0,3.0,69,0.00,,,0.01,Wunderground v.1.13,2013-03-12 02:25:00,
2013-03-11 22:35:00,56.7,47.8,29.73,West,272,2.0,9.0,72,0.00,,,0.02,Wunderground v.1.13,2013-03-12 02:35:00,
2013-03-11 22:40:00,56.4,48.2,29.74,SSW,204,2.0,2.0,74,0.00,,,0.02,Wunderground v.1.13,2013-03-12 02:40:00,
2013-03-11 22:45:00,56.1,47.9,29.74,SSW,204,1.0,1.0,74,0.00,,,0.02,Wunderground v.1.13,2013-03-12 02:45:00,
2013-03-11 22:55:00,55.5,48.1,29.74,SSW,206,0.0,1.0,76,0.12,,,0.04,Wunderground v.1.13,2013-03-12 02:55:00,
2013-03-11 23:00:00,55.0,48.9,29.74,SSE,163,0.0,0.0,80,0.10,,,0.04,Wunderground v.1.13,2013-03-12 03:00:00,
2013-03-11 23:05:00,54.5,48.8,29.74,South,171,0.0,3.0,81,0.05,,,0.04,Wunderground v.1.13,2013-03-12 03:05:00,
2013-03-11 23:15:00,54.0,49.0,29.74,WSW,257,0.0,3.0,83,0.00,,,0.04,Wunderground v.1.13,2013-03-12 03:15:00,
2013-03-11 23:20:00,53.9,48.9,29.74,SSW,203,0.0,2.0,83,0.00,,,0.04,Wunderground v.1.13,2013-03-12 03:20:00,
2013-03-11 23:30:00,53.8,49.1,29.73,SSE,159,1.0,1.0,84,0.00,,,0.04,Wunderground v.1.13,2013-03-12 03:30:00,
2013-03-11 23:35:00,53.7,49.3,29.73,ESE,119,0.0,2.0,85,0.00,,,0.05,Wunderground v.1.13,2013-03-12 03:35:00,
2013-03-11 23:40:00,53.6,49.2,29.74,East,81,0.0,3.0,85,0.00,,,0.05,Wunderground v.1.13,2013-03-12 03:40:00,
2013-03-11 23:50:00,53.4,49.3,29.74,East,81,0.0,0.0,86,0.04,,,0.06,Wunderground v.1.13,2013-03-12 03:50:00,
2013-03-11 23:55:00,53.3,49.2,29.74,East,80,0.0,0.0,86,0.04,,,0.06,Wunderground v.1.13,2013-03-12 03:55:00,